sensor_id;sensor_type;location;lat;lon;timestamp;temperature;humidity
18408;DHT22;9330;52.210;21.174;2023-01-31T00:01:36;2.90;99.90
18408;DHT22;9330;52.210;21.174;2023-01-31T00:04:04;2.90;99.90
18408;DHT22;9330;52.210;21.174;2023-01-31T00:06:33;2.90;99.90
18408;DHT22;9330;52.210;21.174;2023-01-31T00:09:02;2.90;99.90
18408;DHT22;9330;52.210;21.174;2023-01-31T00:11:30;2.90;99.90
18408;DHT22;9330;52.210;21.174;2023-01-31T00:13:59;2.80;99.90
18408;DHT22;9330;52.210;21.174;2023-01-31T00:16:26;2.90;99.90
18408;DHT22;9330;52.210;21.174;2023-01-31T00:18:53;2.90;99.90
18408;DHT22;9330;52.210;21.174;2023-01-31T00:21:22;2.90;99.90
18408;DHT22;9330;52.210;21.174;2023-01-31T00:23:49;2.90;99.90
18408;DHT22;9330;52.210;21.174;2023-01-31T00:26:18;3.00;99.90
18408;DHT22;9330;52.210;21.174;2023-01-31T00:28:47;2.90;99.90
18408;DHT22;9330;52.210;21.174;2023-01-31T00:31:16;3.00;99.90
18408;DHT22;9330;52.210;21.174;2023-01-31T00:33:45;3.00;99.90
18408;DHT22;9330;52.210;21.174;2023-01-31T00:36:14;3.00;99.90
18408;DHT22;9330;52.210;21.174;2023-01-31T00:38:42;3.00;99.90
18408;DHT22;9330;52.210;21.174;2023-01-31T00:41:09;2.90;99.90
18408;DHT22;9330;52.210;21.174;2023-01-31T00:43:36;3.00;99.90
18408;DHT22;9330;52.210;21.174;2023-01-31T00:46:04;2.90;99.90
18408;DHT22;9330;52.210;21.174;2023-01-31T00:48:34;3.00;99.90
18408;DHT22;9330;52.210;21.174;2023-01-31T00:51:01;3.10;99.90
18408;DHT22;9330;52.210;21.174;2023-01-31T00:53:28;3.00;99.90
18408;DHT22;9330;52.210;21.174;2023-01-31T00:56:01;3.00;99.90
18408;DHT22;9330;52.210;21.174;2023-01-31T00:58:28;3.10;99.90
18408;DHT22;9330;52.210;21.174;2023-01-31T01:00:54;3.10;99.90
18408;DHT22;9330;52.210;21.174;2023-01-31T01:03:21;3.00;99.90
18408;DHT22;9330;52.210;21.174;2023-01-31T01:05:49;3.00;99.90
18408;DHT22;9330;52.210;21.174;2023-01-31T01:08:16;3.00;99.90
18408;DHT22;9330;52.210;21.174;2023-01-31T01:10:43;3.00;99.90
18408;DHT22;9330;52.210;21.174;2023-01-31T01:13:10;3.10;99.90
18408;DHT22;9330;52.210;21.174;2023-01-31T01:15:37;3.00;99.90
18408;DHT22;9330;52.210;21.174;2023-01-31T01:18:04;3.00;99.90
18408;DHT22;9330;52.210;21.174;2023-01-31T01:20:33;3.00;99.90
18408;DHT22;9330;52.210;21.174;2023-01-31T01:23:02;3.10;99.90
18408;DHT22;9330;52.210;21.174;2023-01-31T01:25:29;3.00;99.90
18408;DHT22;9330;52.210;21.174;2023-01-31T01:27:56;3.00;99.90
18408;DHT22;9330;52.210;21.174;2023-01-31T01:30:23;2.90;99.90
18408;DHT22;9330;52.210;21.174;2023-01-31T01:32:50;3.00;99.90
18408;DHT22;9330;52.210;21.174;2023-01-31T01:35:19;3.00;99.90
18408;DHT22;9330;52.210;21.174;2023-01-31T01:37:46;2.90;99.90
18408;DHT22;9330;52.210;21.174;2023-01-31T01:40:15;3.00;99.90
18408;DHT22;9330;52.210;21.174;2023-01-31T01:42:41;3.00;99.90
18408;DHT22;9330;52.210;21.174;2023-01-31T01:45:12;2.90;99.90
18408;DHT22;9330;52.210;21.174;2023-01-31T01:47:45;3.00;99.90
18408;DHT22;9330;52.210;21.174;2023-01-31T01:50:18;2.90;99.90
18408;DHT22;9330;52.210;21.174;2023-01-31T01:52:48;2.90;99.90
18408;DHT22;9330;52.210;21.174;2023-01-31T01:55:21;2.90;99.90
18408;DHT22;9330;52.210;21.174;2023-01-31T01:57:52;3.00;99.90
18408;DHT22;9330;52.210;21.174;2023-01-31T02:00:22;2.90;99.90
18408;DHT22;9330;52.210;21.174;2023-01-31T02:02:54;2.90;99.90
18408;DHT22;9330;52.210;21.174;2023-01-31T02:05:25;3.00;99.90
18408;DHT22;9330;52.210;21.174;2023-01-31T02:07:53;3.10;99.90
18408;DHT22;9330;52.210;21.174;2023-01-31T02:10:27;3.00;99.90
18408;DHT22;9330;52.210;21.174;2023-01-31T02:12:55;3.00;99.90
18408;DHT22;9330;52.210;21.174;2023-01-31T02:15:22;3.00;99.90
18408;DHT22;9330;52.210;21.174;2023-01-31T02:17:49;3.00;99.90
18408;DHT22;9330;52.210;21.174;2023-01-31T02:20:28;3.00;99.90
18408;DHT22;9330;52.210;21.174;2023-01-31T02:26:23;3.00;99.90
18408;DHT22;9330;52.210;21.174;2023-01-31T02:34:46;3.00;99.90
18408;DHT22;9330;52.210;21.174;2023-01-31T02:37:25;3.10;99.90
18408;DHT22;9330;52.210;21.174;2023-01-31T02:40:01;3.00;99.90
18408;DHT22;9330;52.210;21.174;2023-01-31T02:42:38;3.10;99.90
18408;DHT22;9330;52.210;21.174;2023-01-31T02:45:11;3.10;99.90
18408;DHT22;9330;52.210;21.174;2023-01-31T02:47:53;3.10;99.90
18408;DHT22;9330;52.210;21.174;2023-01-31T02:50:29;3.10;99.90
18408;DHT22;9330;52.210;21.174;2023-01-31T02:53:01;3.10;99.90
18408;DHT22;9330;52.210;21.174;2023-01-31T02:55:34;3.10;99.90
18408;DHT22;9330;52.210;21.174;2023-01-31T02:58:36;3.20;99.90
18408;DHT22;9330;52.210;21.174;2023-01-31T03:01:04;3.10;99.90
18408;DHT22;9330;52.210;21.174;2023-01-31T03:03:33;3.20;99.90
18408;DHT22;9330;52.210;21.174;2023-01-31T03:06:37;3.10;99.90
18408;DHT22;9330;52.210;21.174;2023-01-31T03:09:03;3.20;99.90
18408;DHT22;9330;52.210;21.174;2023-01-31T03:11:37;3.10;99.90
18408;DHT22;9330;52.210;21.174;2023-01-31T03:14:13;3.10;99.90
18408;DHT22;9330;52.210;21.174;2023-01-31T03:16:50;3.20;99.90
18408;DHT22;9330;52.210;21.174;2023-01-31T03:19:42;3.10;99.90
18408;DHT22;9330;52.210;21.174;2023-01-31T03:22:15;3.10;99.90
18408;DHT22;9330;52.210;21.174;2023-01-31T03:24:49;3.20;99.90
18408;DHT22;9330;52.210;21.174;2023-01-31T03:27:17;3.20;99.90
18408;DHT22;9330;52.210;21.174;2023-01-31T03:29:46;3.20;99.90
18408;DHT22;9330;52.210;21.174;2023-01-31T03:32:19;3.30;99.90
18408;DHT22;9330;52.210;21.174;2023-01-31T03:34:48;3.20;99.90
18408;DHT22;9330;52.210;21.174;2023-01-31T03:37:22;3.20;99.90
18408;DHT22;9330;52.210;21.174;2023-01-31T03:39:55;3.20;99.90
18408;DHT22;9330;52.210;21.174;2023-01-31T03:42:32;3.20;99.90
18408;DHT22;9330;52.210;21.174;2023-01-31T03:45:06;3.30;99.90
18408;DHT22;9330;52.210;21.174;2023-01-31T03:47:37;3.20;99.90
18408;DHT22;9330;52.210;21.174;2023-01-31T03:50:07;3.40;99.90
18408;DHT22;9330;52.210;21.174;2023-01-31T03:52:42;3.20;99.90
18408;DHT22;9330;52.210;21.174;2023-01-31T03:55:15;3.30;99.90
18408;DHT22;9330;52.210;21.174;2023-01-31T03:57:45;3.30;99.90
18408;DHT22;9330;52.210;21.174;2023-01-31T04:00:15;3.30;99.90
18408;DHT22;9330;52.210;21.174;2023-01-31T04:02:48;3.30;99.90
18408;DHT22;9330;52.210;21.174;2023-01-31T04:05:18;3.30;99.90
18408;DHT22;9330;52.210;21.174;2023-01-31T04:07:48;3.30;99.90
18408;DHT22;9330;52.210;21.174;2023-01-31T04:10:17;3.40;99.90
18408;DHT22;9330;52.210;21.174;2023-01-31T04:12:45;3.30;99.90
18408;DHT22;9330;52.210;21.174;2023-01-31T04:15:13;3.40;99.90
18408;DHT22;9330;52.210;21.174;2023-01-31T04:17:39;3.40;99.90
18408;DHT22;9330;52.210;21.174;2023-01-31T04:20:08;3.30;99.90
18408;DHT22;9330;52.210;21.174;2023-01-31T04:22:36;3.30;99.90
18408;DHT22;9330;52.210;21.174;2023-01-31T04:25:06;3.40;99.90
18408;DHT22;9330;52.210;21.174;2023-01-31T04:27:33;3.30;99.90
18408;DHT22;9330;52.210;21.174;2023-01-31T04:30:00;3.40;99.90
18408;DHT22;9330;52.210;21.174;2023-01-31T04:32:27;3.30;99.90
18408;DHT22;9330;52.210;21.174;2023-01-31T04:34:54;3.40;99.90
18408;DHT22;9330;52.210;21.174;2023-01-31T04:37:20;3.40;99.90
18408;DHT22;9330;52.210;21.174;2023-01-31T04:39:47;3.40;99.90
18408;DHT22;9330;52.210;21.174;2023-01-31T04:42:16;3.40;99.90
18408;DHT22;9330;52.210;21.174;2023-01-31T04:44:43;3.40;99.90
18408;DHT22;9330;52.210;21.174;2023-01-31T04:47:09;3.30;99.90
18408;DHT22;9330;52.210;21.174;2023-01-31T04:49:36;3.40;99.90
18408;DHT22;9330;52.210;21.174;2023-01-31T04:52:03;3.30;99.90
18408;DHT22;9330;52.210;21.174;2023-01-31T04:54:30;3.40;99.90
18408;DHT22;9330;52.210;21.174;2023-01-31T04:56:57;3.30;99.90
18408;DHT22;9330;52.210;21.174;2023-01-31T04:59:25;3.30;99.90
18408;DHT22;9330;52.210;21.174;2023-01-31T05:01:52;3.30;99.90
18408;DHT22;9330;52.210;21.174;2023-01-31T05:04:19;3.30;99.90
18408;DHT22;9330;52.210;21.174;2023-01-31T05:06:46;3.20;99.90
18408;DHT22;9330;52.210;21.174;2023-01-31T05:09:13;3.20;99.90
18408;DHT22;9330;52.210;21.174;2023-01-31T05:11:41;3.20;99.90
18408;DHT22;9330;52.210;21.174;2023-01-31T05:14:08;3.20;99.90
18408;DHT22;9330;52.210;21.174;2023-01-31T05:16:36;3.30;99.90
18408;DHT22;9330;52.210;21.174;2023-01-31T05:19:03;3.20;99.90
18408;DHT22;9330;52.210;21.174;2023-01-31T05:21:30;3.20;99.90
18408;DHT22;9330;52.210;21.174;2023-01-31T05:24:17;3.20;99.90
18408;DHT22;9330;52.210;21.174;2023-01-31T05:26:44;3.20;99.90
18408;DHT22;9330;52.210;21.174;2023-01-31T05:29:12;3.20;99.90
18408;DHT22;9330;52.210;21.174;2023-01-31T05:31:40;3.20;99.90
18408;DHT22;9330;52.210;21.174;2023-01-31T05:34:07;3.20;99.90
18408;DHT22;9330;52.210;21.174;2023-01-31T05:36:35;3.30;99.90
18408;DHT22;9330;52.210;21.174;2023-01-31T05:39:02;3.20;99.90
18408;DHT22;9330;52.210;21.174;2023-01-31T05:41:29;3.20;99.90
18408;DHT22;9330;52.210;21.174;2023-01-31T05:43:56;3.20;99.90
18408;DHT22;9330;52.210;21.174;2023-01-31T05:46:23;3.20;99.90
18408;DHT22;9330;52.210;21.174;2023-01-31T05:48:51;3.20;99.90
18408;DHT22;9330;52.210;21.174;2023-01-31T05:51:18;3.20;99.90
18408;DHT22;9330;52.210;21.174;2023-01-31T05:53:45;3.20;99.90
18408;DHT22;9330;52.210;21.174;2023-01-31T05:56:13;3.30;99.90
18408;DHT22;9330;52.210;21.174;2023-01-31T05:58:41;3.20;99.90
18408;DHT22;9330;52.210;21.174;2023-01-31T06:01:07;3.20;99.90
18408;DHT22;9330;52.210;21.174;2023-01-31T06:03:34;3.20;99.90
18408;DHT22;9330;52.210;21.174;2023-01-31T06:06:03;3.10;99.90
18408;DHT22;9330;52.210;21.174;2023-01-31T06:08:30;3.10;99.90
18408;DHT22;9330;52.210;21.174;2023-01-31T06:11:00;3.10;99.90
18408;DHT22;9330;52.210;21.174;2023-01-31T06:13:27;3.10;99.90
18408;DHT22;9330;52.210;21.174;2023-01-31T06:15:54;3.10;99.90
18408;DHT22;9330;52.210;21.174;2023-01-31T06:18:21;3.00;99.90
18408;DHT22;9330;52.210;21.174;2023-01-31T06:20:48;3.00;99.90
18408;DHT22;9330;52.210;21.174;2023-01-31T06:23:17;3.10;99.90
18408;DHT22;9330;52.210;21.174;2023-01-31T06:25:43;3.00;99.90
18408;DHT22;9330;52.210;21.174;2023-01-31T06:28:10;3.10;99.90
18408;DHT22;9330;52.210;21.174;2023-01-31T06:30:37;3.20;99.90
18408;DHT22;9330;52.210;21.174;2023-01-31T06:33:04;3.00;99.90
18408;DHT22;9330;52.210;21.174;2023-01-31T06:35:31;3.10;99.90
18408;DHT22;9330;52.210;21.174;2023-01-31T06:37:58;3.00;99.90
18408;DHT22;9330;52.210;21.174;2023-01-31T06:40:26;3.10;99.90
18408;DHT22;9330;52.210;21.174;2023-01-31T06:42:55;3.30;99.90
18408;DHT22;9330;52.210;21.174;2023-01-31T06:45:22;3.10;99.90
18408;DHT22;9330;52.210;21.174;2023-01-31T06:47:49;3.10;99.90
18408;DHT22;9330;52.210;21.174;2023-01-31T06:50:16;3.10;99.90
18408;DHT22;9330;52.210;21.174;2023-01-31T06:52:43;3.10;99.90
18408;DHT22;9330;52.210;21.174;2023-01-31T06:55:10;3.10;99.90
18408;DHT22;9330;52.210;21.174;2023-01-31T06:57:45;3.20;99.90
18408;DHT22;9330;52.210;21.174;2023-01-31T07:00:12;3.10;99.90
18408;DHT22;9330;52.210;21.174;2023-01-31T07:02:39;3.10;99.90
18408;DHT22;9330;52.210;21.174;2023-01-31T07:05:07;3.10;99.90
18408;DHT22;9330;52.210;21.174;2023-01-31T07:07:33;3.20;99.90
18408;DHT22;9330;52.210;21.174;2023-01-31T07:10:00;3.10;99.90
18408;DHT22;9330;52.210;21.174;2023-01-31T07:12:27;3.10;99.90
18408;DHT22;9330;52.210;21.174;2023-01-31T07:14:55;3.20;99.90
18408;DHT22;9330;52.210;21.174;2023-01-31T07:17:22;3.10;99.90
18408;DHT22;9330;52.210;21.174;2023-01-31T07:19:49;3.20;99.90
18408;DHT22;9330;52.210;21.174;2023-01-31T07:22:16;3.30;99.90
18408;DHT22;9330;52.210;21.174;2023-01-31T07:24:43;3.30;99.90
18408;DHT22;9330;52.210;21.174;2023-01-31T07:27:11;3.30;99.90
18408;DHT22;9330;52.210;21.174;2023-01-31T07:29:38;3.10;99.90
18408;DHT22;9330;52.210;21.174;2023-01-31T07:32:06;3.20;99.90
18408;DHT22;9330;52.210;21.174;2023-01-31T07:34:33;3.20;99.90
18408;DHT22;9330;52.210;21.174;2023-01-31T07:37:00;3.20;99.90
18408;DHT22;9330;52.210;21.174;2023-01-31T07:39:27;3.20;99.90
18408;DHT22;9330;52.210;21.174;2023-01-31T07:41:55;3.20;99.90
18408;DHT22;9330;52.210;21.174;2023-01-31T07:44:22;3.20;99.90
18408;DHT22;9330;52.210;21.174;2023-01-31T07:46:49;3.20;99.90
18408;DHT22;9330;52.210;21.174;2023-01-31T07:49:20;3.30;99.90
18408;DHT22;9330;52.210;21.174;2023-01-31T07:51:47;3.20;99.90
18408;DHT22;9330;52.210;21.174;2023-01-31T07:54:15;3.30;99.90
18408;DHT22;9330;52.210;21.174;2023-01-31T07:56:41;3.20;99.90
18408;DHT22;9330;52.210;21.174;2023-01-31T07:59:08;3.20;99.90
18408;DHT22;9330;52.210;21.174;2023-01-31T08:01:35;3.20;99.90
18408;DHT22;9330;52.210;21.174;2023-01-31T08:04:21;3.20;99.90
18408;DHT22;9330;52.210;21.174;2023-01-31T08:06:48;3.30;99.90
18408;DHT22;9330;52.210;21.174;2023-01-31T08:09:16;3.30;99.90
18408;DHT22;9330;52.210;21.174;2023-01-31T08:11:43;3.30;99.90
18408;DHT22;9330;52.210;21.174;2023-01-31T08:14:10;3.30;99.90
18408;DHT22;9330;52.210;21.174;2023-01-31T08:16:37;3.40;99.90
18408;DHT22;9330;52.210;21.174;2023-01-31T08:19:04;3.40;99.90
18408;DHT22;9330;52.210;21.174;2023-01-31T08:21:32;3.30;99.90
18408;DHT22;9330;52.210;21.174;2023-01-31T08:23:59;3.40;99.90
18408;DHT22;9330;52.210;21.174;2023-01-31T08:26:26;3.30;99.90
18408;DHT22;9330;52.210;21.174;2023-01-31T08:28:53;3.30;99.90
18408;DHT22;9330;52.210;21.174;2023-01-31T08:31:22;3.40;99.90
18408;DHT22;9330;52.210;21.174;2023-01-31T08:33:49;3.40;99.90
18408;DHT22;9330;52.210;21.174;2023-01-31T08:36:19;3.40;99.90
18408;DHT22;9330;52.210;21.174;2023-01-31T08:38:49;3.40;99.90
18408;DHT22;9330;52.210;21.174;2023-01-31T08:41:19;3.40;99.90
18408;DHT22;9330;52.210;21.174;2023-01-31T08:43:46;3.40;99.90
18408;DHT22;9330;52.210;21.174;2023-01-31T08:46:14;3.40;99.90
18408;DHT22;9330;52.210;21.174;2023-01-31T08:48:41;3.50;99.90
18408;DHT22;9330;52.210;21.174;2023-01-31T08:51:10;3.60;99.90
18408;DHT22;9330;52.210;21.174;2023-01-31T08:53:38;3.50;99.90
18408;DHT22;9330;52.210;21.174;2023-01-31T08:56:07;3.50;99.90
18408;DHT22;9330;52.210;21.174;2023-01-31T08:58:36;3.50;99.90
18408;DHT22;9330;52.210;21.174;2023-01-31T09:01:05;3.60;99.90
18408;DHT22;9330;52.210;21.174;2023-01-31T09:03:32;3.60;99.90
18408;DHT22;9330;52.210;21.174;2023-01-31T09:05:59;3.60;99.90
18408;DHT22;9330;52.210;21.174;2023-01-31T09:08:26;3.60;99.90
18408;DHT22;9330;52.210;21.174;2023-01-31T09:10:53;3.50;99.90
18408;DHT22;9330;52.210;21.174;2023-01-31T09:13:22;3.60;99.90
18408;DHT22;9330;52.210;21.174;2023-01-31T09:15:56;3.60;99.90
18408;DHT22;9330;52.210;21.174;2023-01-31T09:18:23;3.60;99.90
18408;DHT22;9330;52.210;21.174;2023-01-31T09:20:50;3.70;99.90
18408;DHT22;9330;52.210;21.174;2023-01-31T09:23:17;3.80;99.90
18408;DHT22;9330;52.210;21.174;2023-01-31T09:25:50;3.80;99.90
18408;DHT22;9330;52.210;21.174;2023-01-31T09:28:17;3.80;99.90
18408;DHT22;9330;52.210;21.174;2023-01-31T09:30:45;3.70;99.90
18408;DHT22;9330;52.210;21.174;2023-01-31T09:33:12;3.80;99.90
18408;DHT22;9330;52.210;21.174;2023-01-31T09:35:39;3.80;99.90
18408;DHT22;9330;52.210;21.174;2023-01-31T09:38:06;3.80;99.90
18408;DHT22;9330;52.210;21.174;2023-01-31T09:40:38;3.80;99.90
18408;DHT22;9330;52.210;21.174;2023-01-31T09:43:07;3.80;99.90
18408;DHT22;9330;52.210;21.174;2023-01-31T09:45:38;3.80;99.90
18408;DHT22;9330;52.210;21.174;2023-01-31T09:48:16;3.80;99.90
18408;DHT22;9330;52.210;21.174;2023-01-31T09:50:46;3.70;99.90
18408;DHT22;9330;52.210;21.174;2023-01-31T09:53:17;3.70;99.90
18408;DHT22;9330;52.210;21.174;2023-01-31T09:55:50;3.80;99.90
18408;DHT22;9330;52.210;21.174;2023-01-31T09:58:26;3.80;99.90
18408;DHT22;9330;52.210;21.174;2023-01-31T10:01:03;3.80;99.90
18408;DHT22;9330;52.210;21.174;2023-01-31T10:03:48;3.80;99.90
18408;DHT22;9330;52.210;21.174;2023-01-31T10:06:20;3.80;99.90
18408;DHT22;9330;52.210;21.174;2023-01-31T10:08:53;3.80;99.90
18408;DHT22;9330;52.210;21.174;2023-01-31T10:11:29;3.80;99.90
18408;DHT22;9330;52.210;21.174;2023-01-31T10:14:00;3.80;99.90
18408;DHT22;9330;52.210;21.174;2023-01-31T10:16:34;3.90;99.90
18408;DHT22;9330;52.210;21.174;2023-01-31T10:19:07;3.80;99.90
18408;DHT22;9330;52.210;21.174;2023-01-31T10:21:39;3.80;99.90
18408;DHT22;9330;52.210;21.174;2023-01-31T10:24:13;4.00;99.90
18408;DHT22;9330;52.210;21.174;2023-01-31T10:26:43;3.90;99.90
18408;DHT22;9330;52.210;21.174;2023-01-31T10:29:15;3.80;99.90
18408;DHT22;9330;52.210;21.174;2023-01-31T10:31:47;3.80;99.90
18408;DHT22;9330;52.210;21.174;2023-01-31T10:34:20;3.90;99.90
18408;DHT22;9330;52.210;21.174;2023-01-31T10:36:51;3.80;99.90
18408;DHT22;9330;52.210;21.174;2023-01-31T10:39:24;3.80;99.90
18408;DHT22;9330;52.210;21.174;2023-01-31T10:42:05;3.80;99.90
18408;DHT22;9330;52.210;21.174;2023-01-31T10:44:41;3.90;99.90
18408;DHT22;9330;52.210;21.174;2023-01-31T10:47:11;3.90;99.90
18408;DHT22;9330;52.210;21.174;2023-01-31T10:49:43;3.90;99.90
18408;DHT22;9330;52.210;21.174;2023-01-31T10:52:18;3.90;99.90
18408;DHT22;9330;52.210;21.174;2023-01-31T10:55:01;3.90;99.90
18408;DHT22;9330;52.210;21.174;2023-01-31T10:57:30;3.90;99.90
18408;DHT22;9330;52.210;21.174;2023-01-31T10:59:58;4.10;99.90
18408;DHT22;9330;52.210;21.174;2023-01-31T11:02:26;4.00;99.90
18408;DHT22;9330;52.210;21.174;2023-01-31T11:04:56;4.00;99.90
18408;DHT22;9330;52.210;21.174;2023-01-31T11:07:27;4.10;99.90
18408;DHT22;9330;52.210;21.174;2023-01-31T11:09:54;4.00;99.90
18408;DHT22;9330;52.210;21.174;2023-01-31T11:12:39;4.00;99.90
18408;DHT22;9330;52.210;21.174;2023-01-31T11:15:15;4.10;99.90
18408;DHT22;9330;52.210;21.174;2023-01-31T11:17:43;4.10;99.90
18408;DHT22;9330;52.210;21.174;2023-01-31T11:20:22;4.00;99.90
18408;DHT22;9330;52.210;21.174;2023-01-31T11:22:50;4.00;99.90
18408;DHT22;9330;52.210;21.174;2023-01-31T11:25:19;4.20;99.90
18408;DHT22;9330;52.210;21.174;2023-01-31T11:27:48;4.10;99.90
18408;DHT22;9330;52.210;21.174;2023-01-31T11:30:22;4.10;99.90
18408;DHT22;9330;52.210;21.174;2023-01-31T11:32:51;4.10;99.90
18408;DHT22;9330;52.210;21.174;2023-01-31T11:35:25;4.00;99.90
18408;DHT22;9330;52.210;21.174;2023-01-31T11:37:54;4.10;99.90
18408;DHT22;9330;52.210;21.174;2023-01-31T11:40:27;4.10;99.90
18408;DHT22;9330;52.210;21.174;2023-01-31T11:42:56;4.10;99.90
18408;DHT22;9330;52.210;21.174;2023-01-31T11:45:26;4.10;99.90
18408;DHT22;9330;52.210;21.174;2023-01-31T11:47:56;4.10;99.90
18408;DHT22;9330;52.210;21.174;2023-01-31T11:50:30;4.00;99.90
18408;DHT22;9330;52.210;21.174;2023-01-31T11:52:59;4.10;99.90
18408;DHT22;9330;52.210;21.174;2023-01-31T11:55:33;4.10;99.90
18408;DHT22;9330;52.210;21.174;2023-01-31T11:58:02;4.10;99.90
18408;DHT22;9330;52.210;21.174;2023-01-31T12:00:32;4.10;99.90
18408;DHT22;9330;52.210;21.174;2023-01-31T12:03:02;4.20;99.90
18408;DHT22;9330;52.210;21.174;2023-01-31T12:05:45;4.10;99.90
18408;DHT22;9330;52.210;21.174;2023-01-31T12:08:28;4.10;99.90
18408;DHT22;9330;52.210;21.174;2023-01-31T12:10:56;4.20;99.90
18408;DHT22;9330;52.210;21.174;2023-01-31T12:13:23;4.20;99.90
18408;DHT22;9330;52.210;21.174;2023-01-31T12:15:53;4.30;99.90
18408;DHT22;9330;52.210;21.174;2023-01-31T12:18:30;4.20;99.90
18408;DHT22;9330;52.210;21.174;2023-01-31T12:21:06;4.30;99.90
18408;DHT22;9330;52.210;21.174;2023-01-31T12:23:38;4.30;99.90
18408;DHT22;9330;52.210;21.174;2023-01-31T12:26:12;4.30;99.90
18408;DHT22;9330;52.210;21.174;2023-01-31T12:29:03;4.30;99.90
18408;DHT22;9330;52.210;21.174;2023-01-31T12:32:02;4.40;99.90
18408;DHT22;9330;52.210;21.174;2023-01-31T12:34:42;4.50;99.90
18408;DHT22;9330;52.210;21.174;2023-01-31T12:37:25;4.40;99.90
18408;DHT22;9330;52.210;21.174;2023-01-31T12:40:07;4.50;99.90
18408;DHT22;9330;52.210;21.174;2023-01-31T12:42:54;4.40;99.90
18408;DHT22;9330;52.210;21.174;2023-01-31T12:45:40;4.40;99.90
18408;DHT22;9330;52.210;21.174;2023-01-31T12:48:38;4.40;99.90
18408;DHT22;9330;52.210;21.174;2023-01-31T12:51:17;4.30;99.90
18408;DHT22;9330;52.210;21.174;2023-01-31T12:53:55;4.30;99.90
18408;DHT22;9330;52.210;21.174;2023-01-31T12:56:49;4.40;99.90
18408;DHT22;9330;52.210;21.174;2023-01-31T12:59:37;4.50;99.90
18408;DHT22;9330;52.210;21.174;2023-01-31T13:02:30;4.50;99.90
18408;DHT22;9330;52.210;21.174;2023-01-31T13:05:09;4.60;99.90
18408;DHT22;9330;52.210;21.174;2023-01-31T13:07:40;4.50;99.90
18408;DHT22;9330;52.210;21.174;2023-01-31T13:10:27;4.50;99.90
18408;DHT22;9330;52.210;21.174;2023-01-31T13:12:57;4.40;99.90
18408;DHT22;9330;52.210;21.174;2023-01-31T13:15:29;4.30;99.90
18408;DHT22;9330;52.210;21.174;2023-01-31T13:18:02;4.40;99.90
18408;DHT22;9330;52.210;21.174;2023-01-31T13:20:33;4.40;99.90
18408;DHT22;9330;52.210;21.174;2023-01-31T13:23:05;4.30;99.90
18408;DHT22;9330;52.210;21.174;2023-01-31T13:25:38;4.30;99.90
18408;DHT22;9330;52.210;21.174;2023-01-31T13:28:12;4.20;99.90
18408;DHT22;9330;52.210;21.174;2023-01-31T13:30:44;4.20;99.90
18408;DHT22;9330;52.210;21.174;2023-01-31T13:33:25;4.10;99.90
18408;DHT22;9330;52.210;21.174;2023-01-31T13:35:59;4.10;99.90
18408;DHT22;9330;52.210;21.174;2023-01-31T13:38:33;4.00;99.90
18408;DHT22;9330;52.210;21.174;2023-01-31T13:41:03;4.10;99.90
18408;DHT22;9330;52.210;21.174;2023-01-31T13:43:30;4.00;99.90
18408;DHT22;9330;52.210;21.174;2023-01-31T13:46:01;4.10;99.90
18408;DHT22;9330;52.210;21.174;2023-01-31T13:48:36;4.10;99.90
18408;DHT22;9330;52.210;21.174;2023-01-31T13:51:08;4.20;99.90
18408;DHT22;9330;52.210;21.174;2023-01-31T13:53:44;4.30;99.90
18408;DHT22;9330;52.210;21.174;2023-01-31T13:56:21;4.20;99.90
18408;DHT22;9330;52.210;21.174;2023-01-31T13:58:50;4.20;99.90
18408;DHT22;9330;52.210;21.174;2023-01-31T14:01:20;4.10;99.90
18408;DHT22;9330;52.210;21.174;2023-01-31T14:04:28;4.00;99.90
18408;DHT22;9330;52.210;21.174;2023-01-31T14:07:17;4.00;99.90
18408;DHT22;9330;52.210;21.174;2023-01-31T14:12:48;3.80;99.90
18408;DHT22;9330;52.210;21.174;2023-01-31T14:15:44;3.90;99.90
18408;DHT22;9330;52.210;21.174;2023-01-31T14:18:11;3.80;99.90
18408;DHT22;9330;52.210;21.174;2023-01-31T14:20:38;3.70;99.90
18408;DHT22;9330;52.210;21.174;2023-01-31T14:23:28;3.70;99.90
18408;DHT22;9330;52.210;21.174;2023-01-31T14:25:55;3.70;99.90
18408;DHT22;9330;52.210;21.174;2023-01-31T14:28:24;3.80;99.90
18408;DHT22;9330;52.210;21.174;2023-01-31T14:30:51;3.70;99.90
18408;DHT22;9330;52.210;21.174;2023-01-31T14:33:28;3.70;99.90
18408;DHT22;9330;52.210;21.174;2023-01-31T14:39:38;3.50;99.90
18408;DHT22;9330;52.210;21.174;2023-01-31T14:42:27;3.50;99.90
18408;DHT22;9330;52.210;21.174;2023-01-31T14:45:14;3.50;99.90
18408;DHT22;9330;52.210;21.174;2023-01-31T14:48:00;3.50;99.90
18408;DHT22;9330;52.210;21.174;2023-01-31T14:50:36;3.40;99.90
18408;DHT22;9330;52.210;21.174;2023-01-31T14:53:17;3.60;99.90
18408;DHT22;9330;52.210;21.174;2023-01-31T14:55:59;3.40;99.90
18408;DHT22;9330;52.210;21.174;2023-01-31T14:58:28;3.30;99.90
18408;DHT22;9330;52.210;21.174;2023-01-31T15:01:02;3.40;99.90
18408;DHT22;9330;52.210;21.174;2023-01-31T15:03:32;3.40;99.90
18408;DHT22;9330;52.210;21.174;2023-01-31T15:06:08;3.30;99.90
18408;DHT22;9330;52.210;21.174;2023-01-31T15:08:41;3.30;99.90
18408;DHT22;9330;52.210;21.174;2023-01-31T15:11:13;3.40;99.90
18408;DHT22;9330;52.210;21.174;2023-01-31T15:14:00;3.30;99.90
18408;DHT22;9330;52.210;21.174;2023-01-31T15:16:36;3.30;99.90
18408;DHT22;9330;52.210;21.174;2023-01-31T15:19:07;3.30;99.90
18408;DHT22;9330;52.210;21.174;2023-01-31T15:21:41;3.20;99.90
18408;DHT22;9330;52.210;21.174;2023-01-31T15:24:15;3.20;99.90
18408;DHT22;9330;52.210;21.174;2023-01-31T15:26:44;3.20;99.90
18408;DHT22;9330;52.210;21.174;2023-01-31T15:29:17;3.10;99.90
18408;DHT22;9330;52.210;21.174;2023-01-31T15:31:48;3.10;99.90
18408;DHT22;9330;52.210;21.174;2023-01-31T15:34:20;3.20;99.90
18408;DHT22;9330;52.210;21.174;2023-01-31T15:36:57;3.10;99.90
18408;DHT22;9330;52.210;21.174;2023-01-31T15:39:31;3.10;99.90
18408;DHT22;9330;52.210;21.174;2023-01-31T15:42:20;3.00;99.90
18408;DHT22;9330;52.210;21.174;2023-01-31T15:44:47;3.00;99.90
18408;DHT22;9330;52.210;21.174;2023-01-31T15:47:20;3.00;99.90
18408;DHT22;9330;52.210;21.174;2023-01-31T15:49:48;2.90;99.90
18408;DHT22;9330;52.210;21.174;2023-01-31T15:52:17;2.90;99.90
18408;DHT22;9330;52.210;21.174;2023-01-31T15:54:55;2.90;99.90
18408;DHT22;9330;52.210;21.174;2023-01-31T15:57:24;2.90;99.90
18408;DHT22;9330;52.210;21.174;2023-01-31T15:59:52;2.80;99.90
18408;DHT22;9330;52.210;21.174;2023-01-31T16:02:26;3.00;99.90
18408;DHT22;9330;52.210;21.174;2023-01-31T16:04:53;2.90;99.90
18408;DHT22;9330;52.210;21.174;2023-01-31T16:07:23;2.90;99.90
18408;DHT22;9330;52.210;21.174;2023-01-31T16:09:54;2.90;99.90
18408;DHT22;9330;52.210;21.174;2023-01-31T16:12:22;2.90;99.90
18408;DHT22;9330;52.210;21.174;2023-01-31T16:14:50;2.90;99.90
18408;DHT22;9330;52.210;21.174;2023-01-31T16:17:25;2.90;99.90
18408;DHT22;9330;52.210;21.174;2023-01-31T16:19:52;2.90;99.90
18408;DHT22;9330;52.210;21.174;2023-01-31T16:22:25;2.90;99.90
18408;DHT22;9330;52.210;21.174;2023-01-31T16:24:54;2.80;99.90
18408;DHT22;9330;52.210;21.174;2023-01-31T16:27:22;2.80;99.90